createdAt,value
2019-05-01T00:00:15.698Z,7.60
2019-05-01T00:01:04.821Z,7.60
2019-05-01T00:02:04.796Z,7.60
2019-05-01T00:03:04.316Z,7.60
2019-05-01T00:04:04.332Z,7.60
2019-05-01T00:05:04.348Z,7.50
2019-05-01T00:06:04.570Z,7.50
2019-05-01T00:07:05.081Z,7.50
2019-05-01T00:08:05.030Z,7.50
2019-05-01T00:09:05.127Z,7.50
2019-05-01T00:10:05.042Z,7.40
2019-05-01T00:11:10.051Z,7.40
2019-05-01T00:12:04.490Z,7.40
2019-05-01T00:13:05.093Z,7.40
2019-05-01T00:14:05.091Z,7.40
2019-05-01T00:15:04.747Z,7.40
2019-05-01T00:16:04.226Z,7.40
2019-05-01T00:17:04.364Z,7.40
2019-05-01T00:18:05.197Z,7.30
2019-05-01T00:19:04.598Z,7.40
2019-05-01T00:20:05.082Z,7.30
2019-05-01T00:21:04.625Z,7.30
2019-05-01T00:22:05.118Z,7.30
2019-05-01T00:23:05.057Z,7.30
2019-05-01T00:24:04.678Z,7.30
2019-05-01T00:25:04.762Z,7.30
2019-05-01T00:26:04.906Z,7.30
2019-05-01T00:27:04.264Z,7.20
2019-05-01T00:28:04.523Z,7.20
2019-05-01T00:29:04.232Z,7.20
2019-05-01T00:30:07.069Z,7.20
2019-05-01T00:31:04.585Z,7.20
2019-05-01T00:32:05.088Z,7.20
2019-05-01T00:33:04.617Z,7.20
2019-05-01T00:34:05.128Z,7.20
2019-05-01T00:35:04.584Z,7.20
2019-05-01T00:36:05.129Z,7.20
2019-05-01T00:37:04.612Z,7.20
2019-05-01T00:38:05.068Z,7.20
2019-05-01T00:39:04.697Z,7.20
2019-05-01T00:40:04.154Z,7.20
2019-05-01T00:41:05.020Z,7.10
2019-05-01T00:42:04.664Z,7.10
2019-05-01T00:43:04.293Z,7.10
2019-05-01T00:44:04.328Z,7.10
2019-05-01T00:45:10.347Z,7.10
2019-05-01T00:46:04.658Z,7.10
2019-05-01T00:47:04.403Z,7.10
2019-05-01T00:48:04.765Z,7.10
2019-05-01T00:49:04.170Z,7.10
2019-05-01T00:50:04.746Z,7.10
2019-05-01T00:51:04.265Z,7.10
2019-05-01T00:52:04.256Z,7.10
2019-05-01T00:53:04.407Z,7.10
2019-05-01T00:54:04.989Z,7.10
2019-05-01T00:55:04.504Z,7.10
2019-05-01T00:56:04.540Z,7.10
2019-05-01T00:57:04.919Z,7.10
2019-05-01T00:58:05.072Z,7.10
2019-05-01T00:59:04.606Z,7.10
2019-05-01T01:00:04.181Z,7.10
2019-05-01T01:01:04.329Z,7.10
2019-05-01T01:02:04.247Z,7.10
2019-05-01T01:03:04.346Z,7.10
2019-05-01T01:04:04.472Z,7.00
2019-05-01T01:05:09.631Z,7.00
2019-05-01T01:06:04.300Z,7.00
2019-05-01T01:07:04.259Z,7.00
2019-05-01T01:08:04.418Z,7.00
2019-05-01T01:09:04.945Z,7.00
2019-05-01T01:10:04.407Z,7.00
2019-05-01T01:11:05.063Z,7.00
2019-05-01T01:12:04.990Z,7.00
2019-05-01T01:13:04.557Z,7.00
2019-05-01T01:14:04.967Z,7.00
2019-05-01T01:15:04.627Z,6.90
2019-05-01T01:16:04.253Z,6.90
2019-05-01T01:17:04.609Z,7.00
2019-05-01T01:18:04.382Z,6.90
2019-05-01T01:19:04.126Z,6.90
2019-05-01T01:20:04.536Z,6.90
2019-05-01T01:21:04.460Z,6.90
2019-05-01T01:22:05.102Z,6.90
2019-05-01T01:23:04.917Z,6.90
2019-05-01T01:24:04.139Z,6.90
2019-05-01T01:25:04.158Z,6.90
2019-05-01T01:26:04.393Z,6.90
2019-05-01T01:27:04.704Z,6.90
2019-05-01T01:28:05.106Z,6.90
2019-05-01T01:29:04.849Z,6.90
2019-05-01T01:30:04.569Z,6.90
2019-05-01T01:31:04.171Z,6.90
2019-05-01T01:32:04.268Z,6.90
2019-05-01T01:33:07.086Z,6.90
2019-05-01T01:34:04.542Z,6.90
2019-05-01T01:35:04.153Z,6.90
2019-05-01T01:36:04.261Z,6.90
2019-05-01T01:37:04.441Z,6.90
2019-05-01T01:38:04.661Z,6.90
2019-05-01T01:39:04.425Z,6.90
2019-05-01T01:40:04.359Z,6.90
2019-05-01T01:41:04.400Z,6.90
2019-05-01T01:42:04.182Z,6.90
2019-05-01T01:43:04.279Z,6.90
2019-05-01T01:44:04.946Z,6.90
2019-05-01T01:45:04.299Z,6.90
2019-05-01T01:46:04.387Z,6.90
2019-05-01T01:47:04.141Z,6.90
2019-05-01T01:48:04.218Z,6.90
2019-05-01T01:49:04.557Z,6.90
2019-05-01T01:50:04.747Z,6.90
2019-05-01T01:51:04.301Z,6.90
2019-05-01T01:52:04.412Z,6.90
2019-05-01T01:53:04.982Z,6.90
2019-05-01T01:54:04.429Z,6.90
2019-05-01T01:55:04.249Z,6.90
2019-05-01T01:56:04.165Z,6.80
2019-05-01T01:57:04.390Z,6.80
2019-05-01T01:58:04.475Z,6.80
2019-05-01T01:59:04.412Z,6.80
2019-05-01T02:00:04.443Z,6.80
2019-05-01T02:01:09.390Z,6.80
2019-05-01T02:02:04.419Z,6.80
2019-05-01T02:03:04.855Z,6.80
2019-05-01T02:04:04.560Z,6.70
2019-05-01T02:05:04.955Z,6.70
2019-05-01T02:06:04.591Z,6.70
2019-05-01T02:07:04.526Z,6.70
2019-05-01T02:08:04.369Z,6.70
2019-05-01T02:09:04.634Z,6.70
2019-05-01T02:10:05.004Z,6.70
2019-05-01T02:11:04.648Z,6.70
2019-05-01T02:12:04.160Z,6.70
2019-05-01T02:13:04.240Z,6.60
2019-05-01T02:14:04.595Z,6.60
2019-05-01T02:15:04.294Z,6.60
2019-05-01T02:16:04.345Z,6.60
2019-05-01T02:17:04.517Z,6.60
2019-05-01T02:18:04.323Z,6.60
2019-05-01T02:19:04.655Z,6.60
2019-05-01T02:20:07.161Z,6.60
2019-05-01T02:21:04.691Z,6.60
2019-05-01T02:22:04.142Z,6.60
2019-05-01T02:23:04.609Z,6.60
2019-05-01T02:24:04.217Z,6.60
2019-05-01T02:25:04.596Z,6.60
2019-05-01T02:26:04.547Z,6.60
2019-05-01T02:27:04.123Z,6.70
2019-05-01T02:28:04.717Z,6.70
2019-05-01T02:29:04.298Z,6.70
2019-05-01T02:30:04.451Z,6.70
2019-05-01T02:31:04.212Z,6.70
2019-05-01T02:32:04.675Z,6.70
2019-05-01T02:33:04.249Z,6.70
2019-05-01T02:34:04.348Z,6.80
2019-05-01T02:35:04.290Z,6.80
2019-05-01T02:36:04.944Z,6.80
2019-05-01T02:37:04.385Z,6.80
2019-05-01T02:38:05.014Z,6.80
2019-05-01T02:39:04.498Z,6.80
2019-05-01T02:40:04.134Z,6.80
2019-05-01T02:41:04.198Z,6.80
2019-05-01T02:42:04.273Z,6.80
2019-05-01T02:43:04.433Z,6.80
2019-05-01T02:44:04.770Z,6.80
2019-05-01T02:45:04.334Z,6.80
2019-05-01T02:46:04.717Z,6.80
2019-05-01T02:47:04.164Z,6.80
2019-05-01T02:48:04.269Z,6.80
2019-05-01T02:49:04.723Z,6.80
2019-05-01T02:50:04.247Z,6.80
2019-05-01T02:51:07.165Z,6.80
2019-05-01T02:52:04.850Z,6.80
2019-05-01T02:53:04.211Z,6.80
2019-05-01T02:54:04.916Z,6.90
2019-05-01T02:55:04.391Z,6.90
2019-05-01T02:56:04.569Z,6.90
2019-05-01T02:57:04.278Z,6.90
2019-05-01T02:58:04.384Z,6.90
2019-05-01T02:59:04.470Z,6.90
2019-05-01T03:00:04.541Z,7.00
2019-05-01T03:01:04.521Z,7.00
2019-05-01T03:02:05.133Z,7.00
2019-05-01T03:03:04.793Z,7.00
2019-05-01T03:04:04.184Z,7.00
2019-05-01T03:05:04.281Z,7.00
2019-05-01T03:06:04.720Z,7.10
2019-05-01T03:07:07.184Z,7.10
2019-05-01T03:08:04.622Z,7.10
2019-05-01T03:09:04.322Z,7.10
2019-05-01T03:10:08.404Z,7.10
2019-05-01T03:11:04.295Z,7.10
2019-05-01T03:12:04.378Z,7.10
2019-05-01T03:13:04.782Z,7.20
2019-05-01T03:14:04.336Z,7.20
2019-05-01T03:15:04.704Z,7.20
2019-05-01T03:16:04.120Z,7.20
2019-05-01T03:17:04.351Z,7.20
2019-05-01T03:18:04.405Z,7.20
2019-05-01T03:19:09.809Z,7.20
2019-05-01T03:20:04.151Z,7.20
2019-05-01T03:21:04.221Z,7.20
2019-05-01T03:22:04.514Z,7.30
2019-05-01T03:23:05.115Z,7.30
2019-05-01T03:24:04.520Z,7.30
2019-05-01T03:25:04.237Z,7.30
2019-05-01T03:26:04.670Z,7.30
2019-05-01T03:27:04.320Z,7.30
2019-05-01T03:28:04.722Z,7.30
2019-05-01T03:29:04.331Z,7.30
2019-05-01T03:30:04.777Z,7.30
2019-05-01T03:31:04.293Z,7.40
2019-05-01T03:32:16.414Z,7.40
2019-05-01T03:33:05.055Z,7.40
2019-05-01T03:34:04.527Z,7.40
2019-05-01T03:35:04.890Z,7.40
2019-05-01T03:36:04.590Z,7.40
2019-05-01T03:37:04.781Z,7.40
2019-05-01T03:38:04.135Z,7.40
2019-05-01T03:39:04.741Z,7.40
2019-05-01T03:40:04.886Z,7.40
2019-05-01T03:41:04.297Z,7.40
2019-05-01T03:42:05.027Z,7.40
2019-05-01T03:43:04.747Z,7.40
2019-05-01T03:44:04.094Z,7.40
2019-05-01T03:45:04.638Z,7.40
2019-05-01T03:46:04.438Z,7.50
2019-05-01T03:47:04.414Z,7.50
2019-05-01T03:48:04.947Z,7.50
2019-05-01T03:49:04.374Z,7.50
2019-05-01T03:50:04.851Z,7.50
2019-05-01T03:51:04.281Z,7.50
2019-05-01T03:52:04.724Z,7.50
2019-05-01T03:53:07.119Z,7.60
2019-05-01T03:54:04.556Z,7.60
2019-05-01T03:55:04.163Z,7.60
2019-05-01T03:56:04.214Z,7.60
2019-05-01T03:57:04.753Z,7.60
2019-05-01T03:58:04.155Z,7.60
2019-05-01T03:59:04.245Z,7.60
2019-05-01T04:00:04.693Z,7.60
2019-05-01T04:01:04.727Z,7.60
2019-05-01T04:02:04.407Z,7.60
2019-05-01T04:03:04.390Z,7.70
2019-05-01T04:04:04.437Z,7.70
2019-05-01T04:05:04.722Z,7.70
2019-05-01T04:06:04.215Z,7.70
2019-05-01T04:07:04.702Z,7.70
2019-05-01T04:08:04.383Z,7.70
2019-05-01T04:09:04.549Z,7.70
2019-05-01T04:10:04.503Z,7.70
2019-05-01T04:11:05.038Z,7.70
2019-05-01T04:12:05.056Z,7.70
2019-05-01T04:13:04.490Z,7.70
2019-05-01T04:14:04.559Z,7.70
2019-05-01T04:15:04.501Z,7.70
2019-05-01T04:16:04.530Z,7.70
2019-05-01T04:17:04.470Z,7.70
2019-05-01T04:18:04.481Z,7.70
2019-05-01T04:19:04.471Z,7.70
2019-05-01T04:20:05.022Z,7.70
2019-05-01T04:21:04.625Z,7.70
2019-05-01T04:22:04.283Z,7.70
2019-05-01T04:23:04.730Z,7.70
2019-05-01T04:24:05.279Z,7.70
2019-05-01T04:25:05.253Z,7.80
2019-05-01T04:26:04.386Z,7.80
2019-05-01T04:27:04.786Z,7.80
2019-05-01T04:28:04.631Z,7.80
2019-05-01T04:29:04.959Z,7.80
2019-05-01T04:30:04.543Z,7.80
2019-05-01T04:31:05.001Z,7.80
2019-05-01T04:32:04.465Z,7.80
2019-05-01T04:33:04.480Z,7.80
2019-05-01T04:34:04.927Z,7.80
2019-05-01T04:35:04.479Z,7.80
2019-05-01T04:36:04.827Z,7.90
2019-05-01T04:37:04.542Z,7.90
2019-05-01T04:38:05.065Z,7.90
2019-05-01T04:39:04.486Z,7.90
2019-05-01T04:40:04.499Z,7.90
2019-05-01T04:41:05.044Z,7.90
2019-05-01T04:42:04.575Z,8.00
2019-05-01T04:43:05.060Z,8.00
2019-05-01T04:44:04.594Z,8.00
2019-05-01T04:45:05.065Z,8.00
2019-05-01T04:46:04.784Z,8.00
2019-05-01T04:47:04.862Z,8.00
2019-05-01T04:48:05.121Z,8.00
2019-05-01T04:49:05.028Z,8.10
2019-05-01T04:50:04.633Z,8.10
2019-05-01T04:51:05.012Z,8.10
2019-05-01T04:52:04.784Z,8.10
2019-05-01T04:53:04.387Z,8.10
2019-05-01T04:54:04.826Z,8.10
2019-05-01T04:55:07.319Z,8.10
2019-05-01T04:56:04.839Z,8.20
2019-05-01T04:57:04.543Z,8.20
2019-05-01T04:58:04.889Z,8.20
2019-05-01T04:59:04.815Z,8.20
2019-05-01T05:00:04.931Z,8.20
2019-05-01T05:01:04.513Z,8.20
2019-05-01T05:02:04.425Z,8.20
2019-05-01T05:03:05.426Z,8.20
2019-05-01T05:04:04.588Z,8.30
2019-05-01T05:05:05.140Z,8.30
2019-05-01T05:06:04.718Z,8.30
2019-05-01T05:07:04.704Z,8.30
2019-05-01T05:08:04.789Z,8.30
2019-05-01T05:09:04.260Z,8.30
2019-05-01T05:10:04.642Z,8.30
2019-05-01T05:11:04.262Z,8.40
2019-05-01T05:12:04.420Z,8.40
2019-05-01T05:13:04.778Z,8.40
2019-05-01T05:14:04.913Z,8.40
2019-05-01T05:15:04.969Z,8.40
2019-05-01T05:16:04.772Z,8.40
2019-05-01T05:17:04.508Z,8.40
2019-05-01T05:18:04.483Z,8.40
2019-05-01T05:19:04.842Z,8.40
2019-05-01T05:20:04.886Z,8.50
2019-05-01T05:21:04.324Z,8.50
2019-05-01T05:22:04.911Z,8.50
2019-05-01T05:23:04.366Z,8.50
2019-05-01T05:24:04.945Z,8.50
2019-05-01T05:25:04.609Z,8.50
2019-05-01T05:26:05.053Z,8.50
2019-05-01T05:27:04.606Z,8.50
2019-05-01T05:28:04.850Z,8.50
2019-05-01T05:29:04.296Z,8.60
2019-05-01T05:30:04.307Z,8.60
2019-05-01T05:31:04.961Z,8.60
2019-05-01T05:32:04.308Z,8.60
2019-05-01T05:33:17.092Z,8.60
2019-05-01T05:34:04.136Z,8.60
2019-05-01T05:35:04.855Z,8.60
2019-05-01T05:36:04.458Z,8.60
2019-05-01T05:37:04.415Z,8.60
2019-05-01T05:38:04.560Z,8.60
2019-05-01T05:39:04.714Z,8.60
2019-05-01T05:40:04.622Z,8.70
2019-05-01T05:41:07.350Z,8.70
2019-05-01T05:42:04.834Z,8.70
2019-05-01T05:43:04.423Z,8.70
2019-05-01T05:44:04.572Z,8.70
2019-05-01T05:45:04.527Z,8.70
2019-05-01T05:46:04.513Z,8.80
2019-05-01T05:47:05.072Z,8.80
2019-05-01T05:48:04.604Z,8.80
2019-05-01T05:49:04.730Z,8.80
2019-05-01T05:50:04.798Z,8.80
2019-05-01T05:51:04.274Z,8.80
2019-05-01T05:52:04.781Z,8.80
2019-05-01T05:53:04.275Z,8.80
2019-05-01T05:54:04.717Z,8.90
2019-05-01T05:55:04.230Z,8.90
2019-05-01T05:56:04.527Z,8.90
2019-05-01T05:57:07.343Z,8.90
2019-05-01T05:58:05.117Z,8.90
2019-05-01T05:59:04.474Z,8.90
2019-05-01T06:00:04.697Z,8.90
2019-05-01T06:01:04.791Z,8.90
2019-05-01T06:02:04.414Z,9.00
2019-05-01T06:03:04.417Z,9.00
2019-05-01T06:04:04.657Z,9.00
2019-05-01T06:05:04.380Z,9.00
2019-05-01T06:06:04.103Z,9.00
2019-05-01T06:07:04.141Z,9.00
2019-05-01T06:08:04.151Z,9.10
2019-05-01T06:09:04.794Z,9.10
2019-05-01T06:10:04.964Z,9.10
2019-05-01T06:11:04.456Z,9.10
2019-05-01T06:12:04.802Z,9.10
2019-05-01T06:13:05.013Z,9.10
2019-05-01T06:14:04.577Z,9.20
2019-05-01T06:15:06.273Z,9.20
2019-05-01T06:16:05.071Z,9.20
2019-05-01T06:17:04.674Z,9.20
2019-05-01T06:18:04.397Z,9.30
2019-05-01T06:19:04.802Z,9.30
2019-05-01T06:20:05.037Z,9.30
2019-05-01T06:21:04.986Z,9.40
2019-05-01T06:22:04.835Z,9.40
2019-05-01T06:23:05.059Z,9.40
2019-05-01T06:24:06.439Z,9.50
2019-05-01T06:25:04.694Z,9.50
2019-05-01T06:26:04.898Z,9.50
2019-05-01T06:27:04.214Z,9.60
2019-05-01T06:28:07.405Z,9.60
2019-05-01T06:29:04.943Z,9.60
2019-05-01T06:30:06.442Z,9.70
2019-05-01T06:31:04.524Z,9.70
2019-05-01T06:32:05.083Z,9.80
2019-05-01T06:33:09.226Z,9.80
2019-05-01T06:34:04.647Z,9.80
2019-05-01T06:35:05.078Z,9.90
2019-05-01T06:36:04.376Z,9.90
2019-05-01T06:37:04.436Z,10.00
2019-05-01T06:38:04.540Z,10.00
2019-05-01T06:39:06.742Z,10.00
2019-05-01T06:40:04.352Z,10.10
2019-05-01T06:41:04.405Z,10.10
2019-05-01T06:42:04.264Z,10.10
2019-05-01T06:43:05.018Z,10.10
2019-05-01T06:44:07.304Z,10.10
2019-05-01T06:45:04.225Z,10.10
2019-05-01T06:46:04.804Z,10.20
2019-05-01T06:47:05.037Z,10.20
2019-05-01T06:48:04.860Z,10.20
2019-05-01T06:49:06.850Z,10.20
2019-05-01T06:50:05.827Z,10.30
2019-05-01T06:51:04.918Z,10.30
2019-05-01T06:52:04.344Z,10.30
2019-05-01T06:53:06.342Z,10.30
2019-05-01T06:54:05.051Z,10.30
2019-05-01T06:55:04.799Z,10.40
2019-05-01T06:56:05.044Z,10.40
2019-05-01T06:57:04.810Z,10.40
2019-05-01T06:58:04.281Z,10.50
2019-05-01T06:59:07.419Z,10.50
2019-05-01T07:00:08.023Z,10.50
2019-05-01T07:01:05.224Z,10.60
2019-05-01T07:02:04.704Z,10.60
2019-05-01T07:03:05.916Z,10.70
2019-05-01T07:04:04.262Z,10.80
2019-05-01T07:05:08.947Z,10.90
2019-05-01T07:06:13.948Z,11.00
2019-05-01T07:07:06.583Z,11.10
2019-05-01T07:08:05.060Z,11.20
2019-05-01T07:09:06.889Z,11.30
2019-05-01T07:10:04.610Z,11.40
2019-05-01T07:11:04.509Z,11.40
2019-05-01T07:12:04.636Z,11.50
2019-05-01T07:13:05.382Z,11.60
2019-05-01T07:14:04.905Z,11.60
2019-05-01T07:15:05.005Z,11.60
2019-05-01T07:16:04.720Z,11.70
2019-05-01T07:17:08.866Z,11.70
2019-05-01T07:18:04.421Z,11.70
2019-05-01T07:19:05.961Z,11.70
2019-05-01T07:20:05.039Z,11.70
2019-05-01T07:21:04.471Z,11.70
2019-05-01T07:22:06.291Z,11.70
2019-05-01T07:23:05.010Z,11.70
2019-05-01T07:24:04.858Z,11.70
2019-05-01T07:25:05.258Z,11.70
2019-05-01T07:26:04.532Z,11.70
2019-05-01T07:27:04.677Z,11.70
2019-05-01T07:28:05.006Z,11.70
2019-05-01T07:29:05.973Z,11.70
2019-05-01T07:30:07.444Z,11.70
2019-05-01T07:31:05.238Z,11.70
2019-05-01T07:32:06.255Z,11.70
2019-05-01T07:33:05.122Z,11.70
2019-05-01T07:34:15.975Z,11.70
2019-05-01T07:35:04.611Z,11.70
2019-05-01T07:36:06.910Z,11.70
2019-05-01T07:37:04.627Z,11.70
2019-05-01T07:38:04.759Z,11.60
2019-05-01T07:39:04.291Z,11.60
2019-05-01T07:40:05.064Z,11.60
2019-05-01T07:41:05.152Z,11.60
2019-05-01T07:42:07.736Z,11.60
2019-05-01T07:43:04.946Z,11.60
2019-05-01T07:44:04.652Z,11.60
2019-05-01T07:45:08.218Z,11.60
2019-05-01T07:46:05.133Z,11.60
2019-05-01T07:47:04.660Z,11.60
2019-05-01T07:48:05.534Z,11.60
2019-05-01T07:49:04.853Z,11.60
2019-05-01T07:50:05.196Z,11.60
2019-05-01T07:51:06.813Z,11.60
2019-05-01T07:52:04.434Z,11.60
2019-05-01T07:53:05.028Z,11.60
2019-05-01T07:54:08.449Z,11.60
2019-05-01T07:55:04.816Z,11.60
2019-05-01T07:56:04.755Z,11.60
2019-05-01T07:57:04.926Z,11.60
2019-05-01T07:58:04.571Z,11.60
2019-05-01T07:59:04.810Z,11.60
2019-05-01T08:00:08.237Z,11.70
2019-05-01T08:01:07.736Z,11.70
2019-05-01T08:02:04.490Z,11.70
2019-05-01T08:03:07.116Z,11.70
2019-05-01T08:04:04.867Z,11.70
2019-05-01T08:05:09.341Z,11.80
2019-05-01T08:06:05.236Z,11.80
2019-05-01T08:07:04.858Z,11.80
2019-05-01T08:08:07.797Z,11.80
2019-05-01T08:09:05.062Z,11.90
2019-05-01T08:10:04.985Z,11.90
2019-05-01T08:11:06.721Z,12.00
2019-05-01T08:12:04.851Z,12.00
2019-05-01T08:13:04.442Z,12.00
2019-05-01T08:14:07.414Z,12.10
2019-05-01T08:15:04.557Z,12.10
2019-05-01T08:16:06.994Z,12.10
2019-05-01T08:17:05.038Z,12.20
2019-05-01T08:18:05.103Z,12.20
2019-05-01T08:19:05.855Z,12.20
2019-05-01T08:20:04.964Z,12.30
2019-05-01T08:21:04.527Z,12.30
2019-05-01T08:22:05.191Z,12.30
2019-05-01T08:23:07.581Z,12.40
2019-05-01T08:24:04.876Z,12.40
2019-05-01T08:25:04.486Z,12.40
2019-05-01T08:26:08.642Z,12.50
2019-05-01T08:27:04.637Z,12.50
2019-05-01T08:28:04.410Z,12.50
2019-05-01T08:29:06.783Z,12.60
2019-05-01T08:30:04.634Z,12.60
2019-05-01T08:31:04.783Z,12.70
2019-05-01T08:32:07.328Z,12.70
2019-05-01T08:33:04.367Z,12.80
2019-05-01T08:34:04.718Z,12.80
2019-05-01T08:35:04.983Z,12.90
2019-05-01T08:36:06.693Z,12.90
2019-05-01T08:37:06.512Z,13.00
2019-05-01T08:38:04.999Z,13.10
2019-05-01T08:39:08.600Z,13.10
2019-05-01T08:40:04.791Z,13.20
2019-05-01T08:41:04.817Z,13.30
2019-05-01T08:42:06.929Z,13.30
2019-05-01T08:43:04.685Z,13.40
2019-05-01T08:44:05.205Z,13.40
2019-05-01T08:45:06.801Z,13.50
2019-05-01T08:46:04.999Z,13.50
2019-05-01T08:47:04.791Z,13.50
2019-05-01T08:48:07.495Z,13.60
2019-05-01T08:49:06.719Z,13.60
2019-05-01T08:50:04.939Z,13.60
2019-05-01T08:51:04.540Z,13.60
2019-05-01T08:52:11.283Z,13.70
2019-05-01T08:53:04.603Z,13.70
2019-05-01T08:54:05.084Z,13.70
2019-05-01T08:55:09.202Z,13.70
2019-05-01T08:56:04.345Z,13.70
2019-05-01T08:57:06.403Z,13.70
2019-05-01T08:58:08.692Z,13.70
2019-05-01T08:59:04.657Z,13.70
2019-05-01T09:00:10.142Z,13.70
2019-05-01T09:01:04.803Z,13.70
2019-05-01T09:02:09.221Z,13.70
2019-05-01T09:03:08.342Z,13.70
2019-05-01T09:04:12.539Z,13.80
2019-05-01T09:05:07.074Z,13.80
2019-05-01T09:06:04.258Z,13.80
2019-05-01T09:07:04.655Z,13.90
2019-05-01T09:08:04.836Z,13.90
2019-05-01T09:09:08.005Z,13.90
2019-05-01T09:10:04.698Z,14.00
2019-05-01T09:11:04.975Z,14.00
2019-05-01T09:12:06.717Z,14.10
2019-05-01T09:13:04.640Z,14.10
2019-05-01T09:14:05.106Z,14.20
2019-05-01T09:15:07.023Z,14.20
2019-05-01T09:16:05.055Z,14.20
2019-05-01T09:17:04.712Z,14.30
2019-05-01T09:18:04.267Z,14.40
2019-05-01T09:19:04.376Z,14.40
2019-05-01T09:20:04.898Z,14.50
2019-05-01T09:21:05.053Z,14.50
2019-05-01T09:22:04.749Z,14.60
2019-05-01T09:23:05.177Z,14.60
2019-05-01T09:24:04.965Z,14.70
2019-05-01T09:25:04.827Z,14.80
2019-05-01T09:26:06.265Z,14.80
2019-05-01T09:27:04.616Z,14.90
2019-05-01T09:28:05.971Z,14.90
2019-05-01T09:29:04.974Z,15.00
2019-05-01T09:30:04.653Z,15.00
2019-05-01T09:31:04.839Z,15.10
2019-05-01T09:32:09.671Z,15.10
2019-05-01T09:33:04.445Z,15.20
2019-05-01T09:34:04.996Z,15.20
2019-05-01T09:35:15.018Z,15.20
2019-05-01T09:36:04.740Z,15.30
2019-05-01T09:37:05.160Z,15.30
2019-05-01T09:38:04.590Z,15.40
2019-05-01T09:39:05.032Z,15.40
2019-05-01T09:40:09.061Z,15.50
2019-05-01T09:41:05.083Z,15.50
2019-05-01T09:42:06.588Z,15.50
2019-05-01T09:43:04.806Z,15.60
2019-05-01T09:44:05.703Z,15.60
2019-05-01T09:45:04.330Z,15.60
2019-05-01T09:46:05.176Z,15.60
2019-05-01T09:47:04.309Z,15.70
2019-05-01T09:48:07.525Z,15.70
2019-05-01T09:49:05.031Z,15.80
2019-05-01T09:50:04.288Z,15.80
2019-05-01T09:51:05.355Z,15.90
2019-05-01T09:52:04.379Z,15.90
2019-05-01T09:53:04.581Z,16.00
2019-05-01T09:54:05.532Z,16.10
2019-05-01T09:55:04.366Z,16.10
2019-05-01T09:56:07.630Z,16.20
2019-05-01T09:57:04.573Z,16.30
2019-05-01T09:58:05.399Z,16.30
2019-05-01T09:59:04.889Z,16.40
2019-05-01T10:00:05.018Z,16.40
2019-05-01T10:01:05.257Z,16.50
2019-05-01T10:02:07.733Z,16.50
2019-05-01T10:03:04.673Z,16.60
2019-05-01T10:04:05.639Z,16.60
2019-05-01T10:05:06.621Z,16.70
2019-05-01T10:06:04.542Z,16.70
2019-05-01T10:07:05.222Z,16.70
2019-05-01T10:08:05.420Z,16.70
2019-05-01T10:09:11.908Z,16.70
2019-05-01T10:10:05.095Z,16.70
2019-05-01T10:11:06.929Z,16.70
2019-05-01T10:12:05.167Z,16.70
2019-05-01T10:13:05.266Z,16.70
2019-05-01T10:14:05.936Z,16.70
2019-05-01T10:15:06.403Z,16.70
2019-05-01T10:16:05.195Z,16.70
2019-05-01T10:17:06.737Z,16.70
2019-05-01T10:18:08.228Z,16.70
2019-05-01T10:19:05.386Z,16.70
2019-05-01T10:20:05.957Z,16.70
2019-05-01T10:21:06.420Z,16.70
2019-05-01T10:22:07.399Z,16.70
2019-05-01T10:23:14.635Z,16.70
2019-05-01T10:24:05.529Z,16.70
2019-05-01T10:25:08.459Z,16.70
2019-05-01T10:26:08.067Z,16.70
2019-05-01T10:27:05.258Z,16.80
2019-05-01T10:28:17.306Z,16.80
2019-05-01T10:29:04.982Z,16.80
2019-05-01T10:30:10.913Z,16.80
2019-05-01T10:31:06.866Z,16.80
2019-05-01T10:32:07.830Z,16.80
2019-05-01T10:33:05.351Z,16.90
2019-05-01T10:34:07.537Z,16.90
2019-05-01T10:35:04.937Z,16.90
2019-05-01T10:36:04.858Z,16.90
2019-05-01T10:37:06.826Z,17.00
2019-05-01T10:38:09.281Z,17.00
2019-05-01T10:39:05.297Z,17.10
2019-05-01T10:40:04.479Z,17.20
2019-05-01T10:41:09.060Z,17.20
2019-05-01T10:42:06.836Z,17.30
2019-05-01T10:43:04.303Z,17.30
2019-05-01T10:44:04.901Z,17.40
2019-05-01T10:45:04.766Z,17.40
2019-05-01T10:46:07.958Z,17.40
2019-05-01T10:47:09.303Z,17.50
2019-05-01T10:48:11.383Z,17.60
2019-05-01T10:49:06.709Z,17.60
2019-05-01T10:50:07.612Z,17.70
2019-05-01T10:51:05.305Z,17.80
2019-05-01T10:52:13.833Z,17.90
2019-05-01T10:53:05.270Z,18.00
2019-05-01T10:54:04.816Z,18.10
2019-05-01T10:55:04.608Z,18.20
2019-05-01T10:56:04.813Z,18.30
2019-05-01T10:57:04.914Z,18.40
2019-05-01T10:58:04.461Z,18.50
2019-05-01T10:59:04.294Z,18.60
2019-05-01T11:00:04.628Z,18.80
2019-05-01T11:01:04.708Z,18.90
2019-05-01T11:02:04.999Z,18.90
2019-05-01T11:03:04.248Z,19.00
2019-05-01T11:04:04.608Z,19.10
2019-05-01T11:05:04.730Z,19.10
2019-05-01T11:06:07.590Z,19.20
2019-05-01T11:07:04.319Z,19.20
2019-05-01T11:08:05.338Z,19.20
2019-05-01T11:09:04.808Z,19.20
2019-05-01T11:10:04.424Z,19.30
2019-05-01T11:11:04.599Z,19.30
2019-05-01T11:12:04.466Z,19.40
2019-05-01T11:13:07.584Z,19.40
2019-05-01T11:14:04.882Z,19.40
2019-05-01T11:15:05.092Z,19.50
2019-05-01T11:16:04.807Z,19.50
2019-05-01T11:17:04.378Z,19.50
2019-05-01T11:18:04.655Z,19.50
2019-05-01T11:19:05.127Z,19.50
2019-05-01T11:20:04.884Z,19.50
2019-05-01T11:21:04.602Z,19.50
2019-05-01T11:22:04.358Z,19.50
2019-05-01T11:23:04.829Z,19.40
2019-05-01T11:24:05.128Z,19.40
2019-05-01T11:25:04.794Z,19.40
2019-05-01T11:26:04.456Z,19.40
2019-05-01T11:27:04.435Z,19.30
2019-05-01T11:28:04.596Z,19.30
2019-05-01T11:29:04.194Z,19.30
2019-05-01T11:30:05.177Z,19.40
2019-05-01T11:31:04.214Z,19.40
2019-05-01T11:32:04.233Z,19.40
2019-05-01T11:33:04.626Z,19.40
2019-05-01T11:34:07.630Z,19.40
2019-05-01T11:35:04.334Z,19.50
2019-05-01T11:36:09.424Z,19.50
2019-05-01T11:37:05.089Z,19.60
2019-05-01T11:38:04.986Z,19.60
2019-05-01T11:39:04.452Z,19.70
2019-05-01T11:40:05.233Z,19.70
2019-05-01T11:41:04.286Z,19.80
2019-05-01T11:42:04.625Z,19.80
2019-05-01T11:43:05.116Z,19.80
2019-05-01T11:44:04.547Z,19.90
2019-05-01T11:45:04.741Z,19.90
2019-05-01T11:46:04.400Z,19.90
2019-05-01T11:47:05.277Z,19.90
2019-05-01T11:48:04.942Z,20.00
2019-05-01T11:49:04.850Z,20.00
2019-05-01T11:50:04.191Z,20.00
2019-05-01T11:51:04.503Z,20.00
2019-05-01T11:52:04.702Z,20.00
2019-05-01T11:53:05.382Z,20.00
2019-05-01T11:54:04.989Z,20.00
2019-05-01T11:55:05.196Z,20.00
2019-05-01T11:56:04.981Z,20.00
2019-05-01T11:57:04.292Z,20.00
2019-05-01T11:58:04.995Z,19.90
2019-05-01T11:59:04.494Z,19.90
2019-05-01T12:00:04.671Z,19.90
2019-05-01T12:01:04.694Z,19.90
2019-05-01T12:02:05.155Z,19.90
2019-05-01T12:03:05.013Z,19.90
2019-05-01T12:04:05.123Z,19.90
2019-05-01T12:05:04.730Z,19.90
2019-05-01T12:06:05.205Z,19.90
2019-05-01T12:07:04.887Z,19.90
2019-05-01T12:08:09.323Z,19.90
2019-05-01T12:09:04.876Z,20.00
2019-05-01T12:10:04.592Z,20.00
2019-05-01T12:11:04.374Z,19.90
2019-05-01T12:12:04.328Z,19.90
2019-05-01T12:13:04.564Z,19.80
2019-05-01T12:14:04.830Z,19.80
2019-05-01T12:15:04.869Z,19.70
2019-05-01T12:16:04.695Z,19.70
2019-05-01T12:17:04.400Z,19.70
2019-05-01T12:18:04.195Z,19.70
2019-05-01T12:19:04.505Z,19.70
2019-05-01T12:20:04.775Z,19.70
2019-05-01T12:21:04.484Z,19.70
2019-05-01T12:22:04.683Z,19.80
2019-05-01T12:23:04.985Z,19.80
2019-05-01T12:24:04.474Z,19.80
2019-05-01T12:25:05.025Z,19.90
2019-05-01T12:26:04.384Z,19.90
2019-05-01T12:27:04.324Z,19.90
2019-05-01T12:28:04.536Z,19.90
2019-05-01T12:29:04.652Z,20.00
2019-05-01T12:30:04.367Z,20.00
2019-05-01T12:31:04.724Z,20.00
2019-05-01T12:32:04.330Z,20.00
2019-05-01T12:33:04.451Z,20.00
2019-05-01T12:34:04.786Z,20.00
2019-05-01T12:35:04.390Z,20.10
2019-05-01T12:36:04.704Z,20.10
2019-05-01T12:37:04.913Z,20.10
2019-05-01T12:38:04.992Z,20.10
2019-05-01T12:39:04.902Z,20.20
2019-05-01T12:40:04.638Z,20.20
2019-05-01T12:41:04.654Z,20.20
2019-05-01T12:42:04.892Z,20.20
2019-05-01T12:43:04.963Z,20.20
2019-05-01T12:44:04.618Z,20.20
2019-05-01T12:45:04.926Z,20.20
2019-05-01T12:46:04.353Z,20.20
2019-05-01T12:47:05.266Z,20.20
2019-05-01T12:48:04.907Z,20.10
2019-05-01T12:49:04.477Z,20.10
2019-05-01T12:50:04.746Z,20.10
2019-05-01T12:51:05.135Z,20.10
2019-05-01T12:52:10.439Z,20.10
2019-05-01T12:53:04.601Z,20.10
2019-05-01T12:54:05.076Z,20.10
2019-05-01T12:55:04.862Z,20.20
2019-05-01T12:56:04.884Z,20.20
2019-05-01T12:57:04.813Z,20.10
2019-05-01T12:58:05.199Z,20.20
2019-05-01T12:59:04.885Z,20.20
2019-05-01T13:00:08.634Z,20.10
2019-05-01T13:01:05.102Z,20.10
2019-05-01T13:02:04.245Z,20.10
2019-05-01T13:03:04.273Z,20.10
2019-05-01T13:04:04.374Z,20.10
2019-05-01T13:05:04.267Z,20.10